Cortez, CO

4:31 AM MDT on September 19, 2014 (GMT -0600)
Kelly Place B&B, McElmo Canyon | Change Station
CLOSE
Current Station
Personal Weather Station
Location: Cortez, CO
Elevation: 5522 ft
Nearby Weather Stations

Elev 5522 ft 37.34 °N, 108.79 °W | Updated 1 minute ago

Clear
Clear
58.1 °F
Feels Like 58.1 °F
N
4.9
Wind Variable Wind from ENE
Gusts 7.8 mph

Today
High -- | Low -- °F
--% Chance of Precip.
Yesterday
High -- | Low -- °F
Precip. -- in
7:00 AM 7:16 PM
Waning Crescent, 20% visible
Pressure 29.87 in
Visibility 10.0 miles
Clouds Clear
Dew Point 43 °F
Humidity 57%
Rainfall 0.00 in
Snow Depth 0 in , 0 in , 0 in
UV 0 out of 12
Pollen 6.30 out of 12
Air Quality Not available.
Flu Activity Not available.
METAR KCEZ 190953Z AUTO 06005KT 10SM CLR 08/06 A3008 RMK AO2 SLP115 T00830061

More Conditions Fewer Conditions

Pressure 29.87 in
Visibility 10.0 miles
Clouds Clear
Dew Point 43 °F
Humidity 57%
Rainfall 0.00 in
Snow Depth 0 in , 0 in , 0 in
UV 0 out of 12
Pollen 6.30 out of 12
Air Quality Not available.
Flu Activity Not available.
METAR KCEZ 190953Z AUTO 06005KT 10SM CLR 08/06 A3008 RMK AO2 SLP115 T00830061

More Conditions Fewer Conditions

10-Day Weather Forecast

Almanac

Astronomy

Sep. 19, 2014 Rise Set
Actual Time 7:00 AM MDT 7:16 PM MDT
Civil Twilight 6:34 AM MDT 7:42 PM MDT
Nautical Twilight 6:03 AM MDT 8:12 PM MDT
Astronomical Twilight 5:32 AM MDT 8:43 PM MDT
Moon 2:52 AM MDT 4:43 PM MDT
Length of Visible Light 13h 08m
Length of Day
12h 16m
Tomorrow will be 2m 22s shorter.
Waning Crescent, 20% of the Moon is Illuminated
Today
Waning Crescent
Sep 24
New
Oct 1
First Quarter
Oct 8
Full
Oct 15
Last Quarter

Today's Extremes

State Highs State Lows

Community

WunderPhotos

Upload Photos

1,754,585 photos uploaded!

Nearby

Snow Depth

Station Depth Elevation
Copper Mountain 0 in 10500 ft
Overland Reservoir 0 in 9880 ft
Mccoy Park 10 in 9480 ft
Upper San Juan 1 in 10130 ft
Park Reservoir 0 in 9960 ft

Earthquake Activity

City Distance Mag. Time & Date
No recent earthquake activity has been reported nearby.
Minimum magnitude displayed is 2.5.

Coastal Water Temperatures

Place Temperature
No Stations Reporting

Nearby Weather Stations